createdAt,value
2023-05-17T00:00:38.661Z,12.92
2023-05-17T00:01:40.588Z,12.91
2023-05-17T00:02:43.490Z,12.91
2023-05-17T00:03:45.476Z,12.89
2023-05-17T00:04:48.424Z,12.88
2023-05-17T00:05:50.859Z,12.88
2023-05-17T00:06:53.881Z,12.88
2023-05-17T00:07:55.782Z,12.86
2023-05-17T00:08:58.828Z,12.87
2023-05-17T00:10:02.147Z,12.85
2023-05-17T00:11:05.113Z,12.86
2023-05-17T00:12:07.760Z,12.86
2023-05-17T00:13:10.757Z,12.86
2023-05-17T00:14:12.911Z,12.84
2023-05-17T00:15:15.899Z,12.84
2023-05-17T00:16:18.903Z,12.85
2023-05-17T00:17:20.776Z,12.84
2023-05-17T00:18:23.817Z,12.83
2023-05-17T00:19:25.873Z,12.84
2023-05-17T00:20:29.339Z,12.82
2023-05-17T00:21:31.374Z,12.82
2023-05-17T00:22:34.324Z,12.79
2023-05-17T00:23:36.397Z,12.78
2023-05-17T00:24:39.295Z,12.78
2023-05-17T00:25:43.099Z,12.77
2023-05-17T00:26:46.061Z,12.78
2023-05-17T00:27:48.421Z,12.74
2023-05-17T00:28:51.328Z,12.76
2023-05-17T00:29:53.332Z,12.75
2023-05-17T00:30:56.264Z,12.76
2023-05-17T00:31:58.190Z,12.76
2023-05-17T00:33:01.315Z,12.75
2023-05-17T00:34:03.280Z,12.77
2023-05-17T00:35:06.997Z,12.77
2023-05-17T00:36:09.400Z,12.76
2023-05-17T00:37:12.610Z,12.76
2023-05-17T00:38:14.526Z,12.74
2023-05-17T00:39:17.483Z,12.75
2023-05-17T00:40:19.671Z,12.74
2023-05-17T00:41:24.050Z,12.75
2023-05-17T00:42:25.984Z,12.73
2023-05-17T00:43:28.892Z,12.73
2023-05-17T00:44:30.940Z,12.73
2023-05-17T00:45:33.906Z,12.73
2023-05-17T00:46:37.390Z,12.71
2023-05-17T00:47:41.152Z,12.71
2023-05-17T00:48:43.473Z,12.72
2023-05-17T00:49:46.927Z,12.70
2023-05-17T00:50:49.223Z,12.67
2023-05-17T00:51:52.794Z,12.69
2023-05-17T00:52:55.900Z,12.69
2023-05-17T00:53:59.121Z,12.68
2023-05-17T00:55:01.256Z,12.68
2023-05-17T00:56:04.263Z,12.69
2023-05-17T00:57:09.728Z,12.69
2023-05-17T00:58:12.990Z,12.69
2023-05-17T00:59:15.784Z,12.68
2023-05-17T01:00:19.001Z,12.68
2023-05-17T01:01:21.562Z,12.68
2023-05-17T01:02:24.760Z,12.68
2023-05-17T01:03:27.271Z,12.70
2023-05-17T01:04:31.344Z,12.68
2023-05-17T01:05:33.565Z,12.67
2023-05-17T01:06:37.041Z,12.67
2023-05-17T01:07:41.339Z,12.68
2023-05-17T01:08:45.628Z,12.66
2023-05-17T01:09:48.514Z,12.66
2023-05-17T01:10:58.248Z,12.66
2023-05-17T01:12:07.982Z,12.66
2023-05-17T01:13:19.600Z,12.65
2023-05-17T01:14:34.208Z,12.66
2023-05-17T01:15:42.505Z,12.66
2023-05-17T01:16:52.645Z,12.65
2023-05-17T01:18:03.989Z,12.65
2023-05-17T01:19:17.416Z,12.64
2023-05-17T01:20:28.045Z,12.64
2023-05-17T01:21:41.364Z,12.66
2023-05-17T01:22:48.519Z,12.65
2023-05-17T01:24:00.564Z,12.63
2023-05-17T01:25:12.431Z,12.63
2023-05-17T01:26:18.254Z,12.62
2023-05-17T01:27:24.149Z,12.62
2023-05-17T01:28:28.524Z,12.60
2023-05-17T01:29:32.855Z,12.56
2023-05-17T01:30:36.932Z,12.58
2023-05-17T01:31:39.455Z,12.56
2023-05-17T01:32:43.014Z,12.57
2023-05-17T01:33:46.398Z,12.57
2023-05-17T01:34:48.456Z,12.58
2023-05-17T01:35:51.338Z,12.58
2023-05-17T01:36:55.567Z,12.58
2023-05-17T01:37:58.587Z,12.59
2023-05-17T01:39:01.625Z,12.57
2023-05-17T01:40:05.671Z,12.56
2023-05-17T01:41:14.196Z,12.56
2023-05-17T01:42:24.570Z,12.54
2023-05-17T01:43:33.854Z,12.54
2023-05-17T01:44:43.485Z,12.53
2023-05-17T01:45:53.959Z,12.54
2023-05-17T01:47:03.477Z,12.55
2023-05-17T01:48:15.671Z,12.53
2023-05-17T01:49:24.950Z,12.51
2023-05-17T01:50:30.873Z,12.53
2023-05-17T01:51:38.526Z,12.53
2023-05-17T01:52:51.153Z,12.54
2023-05-17T01:53:59.158Z,12.53
2023-05-17T01:55:09.028Z,12.53
2023-05-17T01:56:20.248Z,12.53
2023-05-17T01:57:29.559Z,12.52
2023-05-17T01:58:41.004Z,12.52
2023-05-17T01:59:45.029Z,12.51
2023-05-17T02:00:49.898Z,12.51
2023-05-17T02:01:54.251Z,12.52
2023-05-17T02:02:57.244Z,12.53
2023-05-17T02:03:59.218Z,12.50
2023-05-17T02:05:02.233Z,12.51
2023-05-17T02:06:04.453Z,12.50
2023-05-17T02:07:08.574Z,12.50
2023-05-17T02:08:10.815Z,12.48
2023-05-17T02:09:13.914Z,12.48
2023-05-17T02:10:16.006Z,12.48
2023-05-17T02:11:18.932Z,12.47
2023-05-17T02:12:21.172Z,12.47
2023-05-17T02:13:25.532Z,12.46
2023-05-17T02:14:27.430Z,12.45
2023-05-17T02:15:30.789Z,12.46
2023-05-17T02:16:34.517Z,12.45
2023-05-17T02:17:37.739Z,12.46
2023-05-17T02:18:40.558Z,12.44
2023-05-17T02:19:43.535Z,12.43
2023-05-17T02:20:45.432Z,12.44
2023-05-17T02:21:49.885Z,12.43
2023-05-17T02:22:52.072Z,12.42
2023-05-17T02:23:55.035Z,12.41
2023-05-17T02:24:56.915Z,12.42
2023-05-17T02:25:59.744Z,12.40
2023-05-17T02:27:03.726Z,12.38
2023-05-17T02:28:07.798Z,12.41
2023-05-17T02:29:12.004Z,12.39
2023-05-17T02:30:18.193Z,12.39
2023-05-17T02:31:20.275Z,12.39
2023-05-17T02:32:26.287Z,12.38
2023-05-17T02:33:28.256Z,12.39
2023-05-17T02:34:32.902Z,12.38
2023-05-17T02:35:35.034Z,12.37
2023-05-17T02:36:38.008Z,12.37
2023-05-17T02:37:40.323Z,12.37
2023-05-17T02:38:45.737Z,12.37
2023-05-17T02:39:47.679Z,12.36
2023-05-17T02:40:50.617Z,12.36
2023-05-17T02:41:52.724Z,12.35
2023-05-17T02:42:55.686Z,12.36
2023-05-17T02:43:57.576Z,12.36
2023-05-17T02:45:04.456Z,12.36
2023-05-17T02:46:06.509Z,12.36
2023-05-17T02:47:09.395Z,12.35
2023-05-17T02:48:11.824Z,12.36
2023-05-17T02:49:14.808Z,12.35
2023-05-17T02:50:16.794Z,12.35
2023-05-17T02:51:19.689Z,12.33
2023-05-17T02:52:21.745Z,12.34
2023-05-17T02:53:24.947Z,12.33
2023-05-17T02:54:26.918Z,12.32
2023-05-17T02:55:30.214Z,12.32
2023-05-17T02:56:33.011Z,12.31
2023-05-17T02:57:36.896Z,12.30
2023-05-17T02:58:38.863Z,12.28
2023-05-17T02:59:41.827Z,12.28
2023-05-17T03:00:46.332Z,12.29
2023-05-17T03:01:50.986Z,12.28
2023-05-17T03:02:54.477Z,12.28
2023-05-17T03:03:57.876Z,12.28
2023-05-17T03:05:00.079Z,12.30
2023-05-17T03:06:04.907Z,12.29
2023-05-17T03:07:07.782Z,12.29
2023-05-17T03:08:11.646Z,12.28
2023-05-17T03:09:13.725Z,12.28
2023-05-17T03:10:16.977Z,12.27
2023-05-17T03:11:20.522Z,12.25
2023-05-17T03:12:23.570Z,12.25
2023-05-17T03:13:25.695Z,12.23
2023-05-17T03:14:28.662Z,12.23
2023-05-17T03:15:31.072Z,12.22
2023-05-17T03:16:35.649Z,12.20
2023-05-17T03:17:38.192Z,12.21
2023-05-17T03:18:41.995Z,12.22
2023-05-17T03:19:44.136Z,12.19
2023-05-17T03:20:47.327Z,12.19
2023-05-17T03:21:49.512Z,12.17
2023-05-17T03:22:52.795Z,12.18
2023-05-17T03:23:54.878Z,12.17
2023-05-17T03:24:58.912Z,12.17
2023-05-17T03:26:01.777Z,12.16
2023-05-17T03:27:08.399Z,12.16
2023-05-17T03:28:11.266Z,12.14
2023-05-17T03:29:14.193Z,12.14
2023-05-17T03:30:18.887Z,12.13
2023-05-17T03:31:22.874Z,12.13
2023-05-17T03:32:26.360Z,12.11
2023-05-17T03:33:29.470Z,12.12
2023-05-17T03:34:31.494Z,12.12
2023-05-17T03:35:34.779Z,12.11
2023-05-17T03:36:39.294Z,12.13
2023-05-17T03:37:41.383Z,12.12
2023-05-17T03:38:44.716Z,12.11
2023-05-17T03:39:46.718Z,12.11
2023-05-17T03:40:49.756Z,12.11
2023-05-17T03:41:52.663Z,12.11
2023-05-17T03:42:57.727Z,12.10
2023-05-17T03:44:01.357Z,12.09
2023-05-17T03:45:05.438Z,12.11
2023-05-17T03:46:07.466Z,12.10
2023-05-17T03:47:10.851Z,12.09
2023-05-17T03:48:14.105Z,12.09
2023-05-17T03:49:17.323Z,12.09
2023-05-17T03:50:19.543Z,12.07
2023-05-17T03:51:22.582Z,12.08
2023-05-17T03:52:25.455Z,12.07
2023-05-17T03:53:27.397Z,12.07
2023-05-17T03:54:30.362Z,12.07
2023-05-17T03:55:32.398Z,12.08
2023-05-17T03:56:35.773Z,12.06
2023-05-17T03:57:37.887Z,12.07
2023-05-17T03:58:40.789Z,12.07
2023-05-17T03:59:42.713Z,12.07
2023-05-17T04:00:45.981Z,12.06
2023-05-17T04:01:51.785Z,12.07
2023-05-17T04:02:55.573Z,12.06
2023-05-17T04:04:01.347Z,12.06
2023-05-17T04:05:04.774Z,12.04
2023-05-17T04:06:07.392Z,12.04
2023-05-17T04:07:12.187Z,12.04
2023-05-17T04:08:14.281Z,12.03
2023-05-17T04:09:17.341Z,12.03
2023-05-17T04:10:19.294Z,12.05
2023-05-17T04:11:24.190Z,12.04
2023-05-17T04:12:26.330Z,12.03
2023-05-17T04:13:29.597Z,12.03
2023-05-17T04:14:31.627Z,12.04
2023-05-17T04:15:35.213Z,12.05
2023-05-17T04:16:38.093Z,12.03
2023-05-17T04:17:41.297Z,12.03
2023-05-17T04:18:45.468Z,12.02
2023-05-17T04:19:50.263Z,12.02
2023-05-17T04:20:52.303Z,12.02
2023-05-17T04:21:55.380Z,12.02
2023-05-17T04:23:00.060Z,12.00
2023-05-17T04:24:06.357Z,12.01
2023-05-17T04:25:09.733Z,12.01
2023-05-17T04:26:13.368Z,12.00
2023-05-17T04:27:15.272Z,12.01
2023-05-17T04:28:18.770Z,12.01
2023-05-17T04:29:21.288Z,12.01
2023-05-17T04:30:24.973Z,12.00
2023-05-17T04:31:27.117Z,12.01
2023-05-17T04:32:30.338Z,12.01
2023-05-17T04:33:33.823Z,12.01
2023-05-17T04:34:36.725Z,12.01
2023-05-17T04:35:42.555Z,12.02
2023-05-17T04:36:45.539Z,12.02
2023-05-17T04:37:47.619Z,12.02
2023-05-17T04:38:57.407Z,12.01
2023-05-17T04:40:02.985Z,12.01
2023-05-17T04:41:09.372Z,12.01
2023-05-17T04:42:13.115Z,12.00
2023-05-17T04:43:21.388Z,12.00
2023-05-17T04:44:23.646Z,12.00
2023-05-17T04:45:26.660Z,11.99
2023-05-17T04:46:29.658Z,11.99
2023-05-17T04:47:32.645Z,11.98
2023-05-17T04:48:34.875Z,11.99
2023-05-17T04:49:37.805Z,11.98
2023-05-17T04:50:41.014Z,11.99
2023-05-17T04:51:43.932Z,11.99
2023-05-17T04:52:47.484Z,11.99
2023-05-17T04:53:50.615Z,11.98
2023-05-17T04:54:53.528Z,11.98
2023-05-17T04:55:57.937Z,11.98
2023-05-17T04:57:01.938Z,11.98
2023-05-17T04:58:25.284Z,11.98
2023-05-17T04:59:30.991Z,11.99
2023-05-17T05:00:33.984Z,11.98
2023-05-17T05:01:39.616Z,11.98
2023-05-17T05:02:42.492Z,11.98
2023-05-17T05:03:46.846Z,11.98
2023-05-17T05:04:48.845Z,11.98
2023-05-17T05:05:54.323Z,11.96
2023-05-17T05:06:56.489Z,11.98
2023-05-17T05:07:59.843Z,11.96
2023-05-17T05:09:02.496Z,11.96
2023-05-17T05:10:06.730Z,11.96
2023-05-17T05:11:08.872Z,11.96
2023-05-17T05:12:12.167Z,11.95
2023-05-17T05:13:15.538Z,11.96
2023-05-17T05:14:18.537Z,11.96
2023-05-17T05:15:20.852Z,11.98
2023-05-17T05:16:30.384Z,11.98
2023-05-17T05:17:33.765Z,11.98
2023-05-17T05:18:37.059Z,11.99
2023-05-17T05:19:39.285Z,11.99
2023-05-17T05:20:45.077Z,11.98
2023-05-17T05:21:48.352Z,11.99
2023-05-17T05:22:51.542Z,11.98
2023-05-17T05:23:55.646Z,11.99
2023-05-17T05:24:57.531Z,11.99
2023-05-17T05:26:00.660Z,11.98
2023-05-17T05:27:06.263Z,11.98
2023-05-17T05:28:12.165Z,11.98
2023-05-17T05:29:17.292Z,11.98
2023-05-17T05:30:22.536Z,11.99
2023-05-17T05:31:27.743Z,11.99
2023-05-17T05:32:32.812Z,11.99
2023-05-17T05:33:36.504Z,11.99
2023-05-17T05:34:39.030Z,12.00
2023-05-17T05:35:41.925Z,12.00
2023-05-17T05:36:44.699Z,12.02
2023-05-17T05:37:49.062Z,12.02
2023-05-17T05:38:54.385Z,12.02
2023-05-17T05:39:57.814Z,12.02
2023-05-17T05:40:59.751Z,12.03
2023-05-17T05:42:04.304Z,12.04
2023-05-17T05:43:06.419Z,12.04
2023-05-17T05:44:09.410Z,12.06
2023-05-17T05:45:12.132Z,12.07
2023-05-17T05:46:16.161Z,12.08
2023-05-17T05:47:18.245Z,12.08
2023-05-17T05:48:22.114Z,12.08
2023-05-17T05:49:24.491Z,12.08
2023-05-17T05:50:27.681Z,12.08
2023-05-17T05:51:35.247Z,12.08
2023-05-17T05:52:37.212Z,12.06
2023-05-17T05:53:41.628Z,12.07
2023-05-17T05:54:45.345Z,12.07
2023-05-17T05:55:47.304Z,12.02
2023-05-17T05:56:51.257Z,12.06
2023-05-17T05:57:54.910Z,12.08
2023-05-17T05:58:58.835Z,12.09
2023-05-17T06:00:01.407Z,12.10
2023-05-17T06:01:06.296Z,12.11
2023-05-17T06:02:08.674Z,12.11
2023-05-17T06:03:13.685Z,12.11
2023-05-17T06:04:15.853Z,12.14
2023-05-17T06:05:18.958Z,12.14
2023-05-17T06:06:22.354Z,12.16
2023-05-17T06:07:24.428Z,12.15
2023-05-17T06:08:27.724Z,12.15
2023-05-17T06:09:31.069Z,12.15
2023-05-17T06:10:34.266Z,12.15
2023-05-17T06:11:37.116Z,12.15
2023-05-17T06:12:40.100Z,12.15
2023-05-17T06:13:42.043Z,12.15
2023-05-17T06:14:44.978Z,12.15
2023-05-17T06:15:46.935Z,12.14
2023-05-17T06:16:49.818Z,12.14
2023-05-17T06:17:51.806Z,12.16
2023-05-17T06:18:54.999Z,12.17
2023-05-17T06:19:57.046Z,12.18
2023-05-17T06:21:00.219Z,12.21
2023-05-17T06:22:02.147Z,12.22
2023-05-17T06:23:05.251Z,12.27
2023-05-17T06:24:08.862Z,12.31
2023-05-17T06:25:13.210Z,12.33
2023-05-17T06:26:15.145Z,12.33
2023-05-17T06:27:18.082Z,12.35
2023-05-17T06:28:20.161Z,12.36
2023-05-17T06:29:24.075Z,12.43
2023-05-17T06:30:27.744Z,12.47
2023-05-17T06:31:30.926Z,12.50
2023-05-17T06:32:33.949Z,12.52
2023-05-17T06:33:36.218Z,12.54
2023-05-17T06:34:40.057Z,12.57
2023-05-17T06:35:55.625Z,12.63
2023-05-17T06:37:00.492Z,12.68
2023-05-17T06:38:02.615Z,12.71
2023-05-17T06:39:05.610Z,12.74
2023-05-17T06:40:15.985Z,12.77
2023-05-17T06:41:21.348Z,12.82
2023-05-17T06:42:23.457Z,12.86
2023-05-17T06:43:26.693Z,12.90
2023-05-17T06:44:29.599Z,12.94
2023-05-17T06:45:31.492Z,12.97
2023-05-17T06:46:34.481Z,13.01
2023-05-17T06:47:36.677Z,13.01
2023-05-17T06:48:39.960Z,13.03
2023-05-17T06:49:41.972Z,13.06
2023-05-17T06:50:44.988Z,13.08
2023-05-17T06:51:48.815Z,13.11
2023-05-17T06:52:51.674Z,13.09
2023-05-17T06:53:54.588Z,13.11
2023-05-17T06:54:56.552Z,13.11
2023-05-17T06:55:59.654Z,13.12
2023-05-17T06:57:03.263Z,13.10
2023-05-17T06:58:06.252Z,13.08
2023-05-17T06:59:08.258Z,13.07
2023-05-17T07:00:12.990Z,13.06
2023-05-17T07:01:14.988Z,13.02
2023-05-17T07:02:17.932Z,13.04
2023-05-17T07:03:20.505Z,12.98
2023-05-17T07:04:24.079Z,12.99
2023-05-17T07:05:29.168Z,12.96
2023-05-17T07:06:31.497Z,12.97
2023-05-17T07:07:34.405Z,12.96
2023-05-17T07:08:37.445Z,12.95
2023-05-17T07:09:42.463Z,12.95
2023-05-17T07:10:45.424Z,12.97
2023-05-17T07:11:48.674Z,12.98
2023-05-17T07:12:53.795Z,12.99
2023-05-17T07:13:55.850Z,12.99
2023-05-17T07:14:59.592Z,12.98
2023-05-17T07:16:02.668Z,13.02
2023-05-17T07:17:05.152Z,13.02
2023-05-17T07:18:08.360Z,13.01
2023-05-17T07:19:11.485Z,13.05
2023-05-17T07:20:14.731Z,13.06
2023-05-17T07:21:20.114Z,13.08
2023-05-17T07:22:23.034Z,13.09
2023-05-17T07:23:25.053Z,13.12
2023-05-17T07:24:28.405Z,13.14
2023-05-17T07:25:32.933Z,13.14
2023-05-17T07:26:35.227Z,13.16
2023-05-17T07:27:38.142Z,13.19
2023-05-17T07:28:42.724Z,13.21
2023-05-17T07:29:44.721Z,13.19
2023-05-17T07:30:47.625Z,13.18
2023-05-17T07:31:49.594Z,13.19
2023-05-17T07:32:52.487Z,13.20
2023-05-17T07:33:55.508Z,13.18
2023-05-17T07:34:58.505Z,13.19
2023-05-17T07:36:00.533Z,13.22
2023-05-17T07:37:03.718Z,13.26
2023-05-17T07:38:09.006Z,13.29
2023-05-17T07:39:12.313Z,13.31
2023-05-17T07:40:14.568Z,13.35
2023-05-17T07:41:21.707Z,13.38
2023-05-17T07:42:24.765Z,13.40
2023-05-17T07:43:26.762Z,13.42
2023-05-17T07:44:31.186Z,13.47
2023-05-17T07:45:33.126Z,13.48
2023-05-17T07:46:36.431Z,13.48
2023-05-17T07:47:38.521Z,13.48
2023-05-17T07:48:41.735Z,13.49
2023-05-17T07:49:43.778Z,13.47
2023-05-17T07:50:47.338Z,13.48
2023-05-17T07:51:50.367Z,13.48
2023-05-17T07:52:52.704Z,13.48
2023-05-17T07:53:55.715Z,13.48
2023-05-17T07:54:57.687Z,13.48
2023-05-17T07:56:03.099Z,13.47
2023-05-17T07:57:05.196Z,13.45
2023-05-17T07:58:11.077Z,13.43
2023-05-17T07:59:13.040Z,13.45
2023-05-17T08:00:24.051Z,13.47
2023-05-17T08:01:27.812Z,13.50
2023-05-17T08:02:29.872Z,13.51
2023-05-17T08:03:33.000Z,13.56
2023-05-17T08:04:35.070Z,13.58
2023-05-17T08:05:38.120Z,13.61
2023-05-17T08:06:41.144Z,13.62
2023-05-17T08:07:44.059Z,13.61
2023-05-17T08:08:46.060Z,13.58
2023-05-17T08:09:49.066Z,13.56
2023-05-17T08:10:51.150Z,13.50
2023-05-17T08:11:54.360Z,13.48
2023-05-17T08:12:56.514Z,13.45
2023-05-17T08:14:02.109Z,13.45
2023-05-17T08:15:05.785Z,13.44
2023-05-17T08:16:14.208Z,13.35
2023-05-17T08:17:17.623Z,13.32
2023-05-17T08:18:20.480Z,13.30
2023-05-17T08:19:23.576Z,13.29
2023-05-17T08:20:25.552Z,13.27
2023-05-17T08:21:28.477Z,13.30
2023-05-17T08:22:31.439Z,13.32
2023-05-17T08:23:34.613Z,13.33
2023-05-17T08:24:36.563Z,13.29
2023-05-17T08:25:39.492Z,13.31
2023-05-17T08:26:41.492Z,13.32
2023-05-17T08:27:44.533Z,13.34
2023-05-17T08:28:46.424Z,13.30
2023-05-17T08:29:49.358Z,13.37
2023-05-17T08:30:51.309Z,13.40
2023-05-17T08:31:56.903Z,13.44
2023-05-17T08:32:58.984Z,13.49
2023-05-17T08:34:02.199Z,13.51
2023-05-17T08:35:04.791Z,13.56
2023-05-17T08:36:09.487Z,13.57
2023-05-17T08:37:12.388Z,13.56
2023-05-17T08:38:15.379Z,13.56
2023-05-17T08:39:18.320Z,13.53
2023-05-17T08:40:21.568Z,13.51
2023-05-17T08:41:24.527Z,13.53
2023-05-17T08:42:28.976Z,13.56
2023-05-17T08:43:31.892Z,13.58
2023-05-17T08:44:36.420Z,13.62
2023-05-17T08:45:39.117Z,13.66
2023-05-17T08:46:44.018Z,13.68
2023-05-17T08:47:47.400Z,13.68
2023-05-17T08:48:51.991Z,13.72
2023-05-17T08:50:01.160Z,13.73
2023-05-17T08:51:04.551Z,13.77
2023-05-17T08:52:10.016Z,13.80
2023-05-17T08:53:13.971Z,13.81
2023-05-17T08:54:16.120Z,13.85
2023-05-17T08:55:19.270Z,13.79
2023-05-17T08:56:25.379Z,13.78
2023-05-17T08:57:29.728Z,13.76
2023-05-17T08:58:44.349Z,13.73
2023-05-17T08:59:58.650Z,13.73
2023-05-17T09:01:03.034Z,13.72
2023-05-17T09:02:06.017Z,13.72
2023-05-17T09:03:12.245Z,13.74
2023-05-17T09:04:16.387Z,13.75
2023-05-17T09:05:18.563Z,13.79
2023-05-17T09:06:23.300Z,13.81
2023-05-17T09:07:26.622Z,13.85
2023-05-17T09:08:30.186Z,13.87
2023-05-17T09:09:34.038Z,13.85
2023-05-17T09:10:37.055Z,13.83
2023-05-17T09:11:40.667Z,13.78
2023-05-17T09:12:42.751Z,13.80
2023-05-17T09:13:45.824Z,13.83
2023-05-17T09:14:47.809Z,13.83
2023-05-17T09:15:50.852Z,13.84
2023-05-17T09:16:57.456Z,13.88
2023-05-17T09:18:00.506Z,13.90
2023-05-17T09:19:05.567Z,13.94
2023-05-17T09:20:09.598Z,13.93
2023-05-17T09:21:14.668Z,13.95
2023-05-17T09:22:20.579Z,14.00
2023-05-17T09:23:23.688Z,14.02
2023-05-17T09:24:29.219Z,14.04
2023-05-17T09:25:32.535Z,14.05
2023-05-17T09:26:42.373Z,14.09
2023-05-17T09:27:45.353Z,14.13
2023-05-17T09:28:48.429Z,14.15
2023-05-17T09:29:51.354Z,14.15
2023-05-17T09:30:53.253Z,14.14
2023-05-17T09:31:56.293Z,14.12
2023-05-17T09:32:59.378Z,14.12
2023-05-17T09:34:03.954Z,14.12
2023-05-17T09:35:08.563Z,14.11
2023-05-17T09:36:16.367Z,14.12
2023-05-17T09:37:20.842Z,14.13
2023-05-17T09:38:27.341Z,14.14
2023-05-17T09:39:29.444Z,14.14
2023-05-17T09:40:32.559Z,14.14
2023-05-17T09:41:42.749Z,14.11
2023-05-17T09:42:49.184Z,14.10
2023-05-17T09:43:51.449Z,14.06
2023-05-17T09:44:57.649Z,14.05
2023-05-17T09:45:59.680Z,14.03
2023-05-17T09:47:02.549Z,14.00
2023-05-17T09:48:14.775Z,13.98
2023-05-17T09:49:19.312Z,13.96
2023-05-17T09:50:24.603Z,13.92
2023-05-17T09:51:35.345Z,13.92
2023-05-17T09:52:40.093Z,13.89
2023-05-17T09:53:43.046Z,13.89
2023-05-17T09:54:52.636Z,13.87
2023-05-17T09:55:57.160Z,13.86
2023-05-17T09:57:07.703Z,13.88
2023-05-17T09:58:10.652Z,13.90
2023-05-17T09:59:14.748Z,13.92
2023-05-17T10:00:19.588Z,13.93
2023-05-17T10:01:23.396Z,13.95
2023-05-17T10:02:28.370Z,13.94
2023-05-17T10:03:34.512Z,13.91
2023-05-17T10:04:39.566Z,13.92
2023-05-17T10:05:45.846Z,13.91
2023-05-17T10:06:52.336Z,13.90
2023-05-17T10:07:56.462Z,13.89
2023-05-17T10:08:59.987Z,13.89
2023-05-17T10:10:02.763Z,13.91
2023-05-17T10:11:09.648Z,13.95
2023-05-17T10:12:16.115Z,13.96
2023-05-17T10:13:22.065Z,14.00
2023-05-17T10:14:31.800Z,14.00
2023-05-17T10:15:34.672Z,14.05
2023-05-17T10:16:39.122Z,14.10
2023-05-17T10:17:44.606Z,14.11
2023-05-17T10:18:50.433Z,14.05
2023-05-17T10:19:55.198Z,14.10
2023-05-17T10:20:58.459Z,14.12
2023-05-17T10:22:18.956Z,14.12
2023-05-17T10:23:28.582Z,14.10
2023-05-17T10:24:32.475Z,14.07
2023-05-17T10:25:36.090Z,14.09
2023-05-17T10:26:38.813Z,14.07
2023-05-17T10:27:42.183Z,14.06
2023-05-17T10:28:47.339Z,14.06
2023-05-17T10:29:51.476Z,14.05
2023-05-17T10:30:54.098Z,14.06
2023-05-17T10:31:58.026Z,14.07
2023-05-17T10:33:01.732Z,14.07
2023-05-17T10:34:05.902Z,14.12
2023-05-17T10:35:12.360Z,14.15
2023-05-17T10:36:17.732Z,14.17
2023-05-17T10:37:22.063Z,14.20
2023-05-17T10:38:32.084Z,14.24
2023-05-17T10:39:38.830Z,14.23
2023-05-17T10:40:43.392Z,14.23
2023-05-17T10:41:48.835Z,14.24
2023-05-17T10:42:53.848Z,14.24
2023-05-17T10:43:56.452Z,14.24
2023-05-17T10:45:01.708Z,14.25
2023-05-17T10:46:06.000Z,14.27
2023-05-17T10:47:09.727Z,14.27
2023-05-17T10:48:16.197Z,14.28
2023-05-17T10:49:22.094Z,14.29
2023-05-17T10:50:29.021Z,14.27
2023-05-17T10:51:33.349Z,14.24
2023-05-17T10:52:39.826Z,14.19
2023-05-17T10:54:09.511Z,14.19
2023-05-17T10:55:12.602Z,14.19
2023-05-17T10:56:14.528Z,14.20
2023-05-17T10:57:22.508Z,14.18
2023-05-17T10:58:28.203Z,14.19
2023-05-17T10:59:32.174Z,14.20
2023-05-17T11:00:39.193Z,14.23
2023-05-17T11:01:58.965Z,14.22
2023-05-17T11:03:13.970Z,14.24
2023-05-17T11:04:23.719Z,14.24
2023-05-17T11:05:28.422Z,14.28
2023-05-17T11:06:36.507Z,14.30
2023-05-17T11:07:40.878Z,14.32
2023-05-17T11:08:47.403Z,14.35
2023-05-17T11:09:51.693Z,14.36
2023-05-17T11:11:10.434Z,14.36
2023-05-17T11:12:13.495Z,14.39
2023-05-17T11:13:28.410Z,14.40
2023-05-17T11:14:44.705Z,14.40
2023-05-17T11:16:04.183Z,14.38
2023-05-17T11:17:14.156Z,14.39
2023-05-17T11:18:29.608Z,14.38
2023-05-17T11:19:33.633Z,14.36
2023-05-17T11:20:38.970Z,14.37
2023-05-17T11:21:47.027Z,14.37
2023-05-17T11:22:52.091Z,14.33
2023-05-17T11:23:56.644Z,14.33
2023-05-17T11:25:00.707Z,14.35
2023-05-17T11:26:17.275Z,14.36
2023-05-17T11:27:20.110Z,14.30
2023-05-17T11:28:23.100Z,14.30
2023-05-17T11:29:29.371Z,14.33
2023-05-17T11:30:33.540Z,14.33
2023-05-17T11:31:36.965Z,14.35
2023-05-17T11:32:40.003Z,14.38
2023-05-17T11:33:43.869Z,14.41
2023-05-17T11:34:53.418Z,14.44
2023-05-17T11:35:57.770Z,14.46
2023-05-17T11:36:59.674Z,14.48
2023-05-17T11:38:15.056Z,14.47
2023-05-17T11:39:20.606Z,14.49
2023-05-17T11:40:28.020Z,14.50
2023-05-17T11:41:30.664Z,14.51
2023-05-17T11:42:34.163Z,14.54
2023-05-17T11:43:36.596Z,14.55
2023-05-17T11:44:39.851Z,14.57
2023-05-17T11:45:47.416Z,14.55
2023-05-17T11:46:51.479Z,14.57
2023-05-17T11:47:54.057Z,14.57
2023-05-17T11:48:58.224Z,14.57
2023-05-17T11:50:01.889Z,14.56
2023-05-17T11:51:06.411Z,14.54
2023-05-17T11:52:08.804Z,14.51
2023-05-17T11:53:12.821Z,14.51
2023-05-17T11:54:16.673Z,14.55
2023-05-17T11:55:18.999Z,14.57
2023-05-17T11:56:35.563Z,14.59
2023-05-17T11:57:45.354Z,14.59
2023-05-17T11:58:52.801Z,14.58
2023-05-17T12:00:00.419Z,14.59
2023-05-17T12:01:03.859Z,14.62
2023-05-17T12:02:06.798Z,14.63
2023-05-17T12:03:19.724Z,14.64
2023-05-17T12:04:27.103Z,14.64
2023-05-17T12:05:29.106Z,14.62
2023-05-17T12:06:35.076Z,14.64
2023-05-17T12:07:38.479Z,14.65
2023-05-17T12:08:45.052Z,14.60
2023-05-17T12:09:47.771Z,14.59
2023-05-17T12:10:51.826Z,14.57
2023-05-17T12:11:54.456Z,14.57
2023-05-17T12:12:57.850Z,14.55
2023-05-17T12:14:01.705Z,14.55
2023-05-17T12:15:04.037Z,14.54
2023-05-17T12:16:14.530Z,14.55
2023-05-17T12:17:27.668Z,14.57
2023-05-17T12:18:39.812Z,14.60
2023-05-17T12:19:43.027Z,14.63
2023-05-17T12:20:56.201Z,14.65
2023-05-17T12:22:09.346Z,14.64
2023-05-17T12:23:11.326Z,14.66
2023-05-17T12:24:14.604Z,14.66
2023-05-17T12:25:20.204Z,14.64
2023-05-17T12:26:24.806Z,14.64
2023-05-17T12:27:27.309Z,14.63
2023-05-17T12:28:30.296Z,14.64
2023-05-17T12:29:33.190Z,14.64
2023-05-17T12:30:35.201Z,14.65
2023-05-17T12:31:40.846Z,14.66
2023-05-17T12:32:43.358Z,14.68
2023-05-17T12:33:48.202Z,14.70
2023-05-17T12:34:50.957Z,14.72
2023-05-17T12:35:54.238Z,14.75
2023-05-17T12:36:57.556Z,14.75
2023-05-17T12:38:01.590Z,14.77
2023-05-17T12:39:09.407Z,14.77
2023-05-17T12:40:12.423Z,14.75
2023-05-17T12:41:17.052Z,14.76
2023-05-17T12:42:20.058Z,14.77
2023-05-17T12:43:24.999Z,14.74
2023-05-17T12:44:27.991Z,14.71
2023-05-17T12:45:29.958Z,14.72
2023-05-17T12:46:33.513Z,14.70
2023-05-17T12:47:35.465Z,14.68
2023-05-17T12:48:39.729Z,14.67
2023-05-17T12:49:56.284Z,14.66
2023-05-17T12:50:58.368Z,14.66
2023-05-17T12:52:05.115Z,14.64
2023-05-17T12:53:12.480Z,14.61
2023-05-17T12:54:17.213Z,14.63
2023-05-17T12:55:19.156Z,14.67
2023-05-17T12:56:23.390Z,14.70
2023-05-17T12:57:25.312Z,14.72
2023-05-17T12:58:28.636Z,14.75
2023-05-17T12:59:31.345Z,14.75
2023-05-17T13:00:34.372Z,14.73
2023-05-17T13:01:36.926Z,14.75
2023-05-17T13:02:44.279Z,14.78
2023-05-17T13:03:51.706Z,14.78
2023-05-17T13:04:54.757Z,14.79
2023-05-17T13:06:01.894Z,14.76
2023-05-17T13:07:06.276Z,14.77
2023-05-17T13:08:22.108Z,14.76
2023-05-17T13:09:26.389Z,14.74
2023-05-17T13:10:29.147Z,14.76
2023-05-17T13:11:32.259Z,14.76
2023-05-17T13:12:39.237Z,14.76
2023-05-17T13:13:41.698Z,14.73
2023-05-17T13:14:47.467Z,14.79
2023-05-17T13:15:50.254Z,14.81
2023-05-17T13:16:53.193Z,14.82
2023-05-17T13:17:56.405Z,14.83
2023-05-17T13:18:58.631Z,14.83
2023-05-17T13:20:02.261Z,14.84
2023-05-17T13:21:04.467Z,14.84
2023-05-17T13:22:08.133Z,14.86
2023-05-17T13:23:10.280Z,14.85
2023-05-17T13:24:15.484Z,14.85
2023-05-17T13:25:18.702Z,14.85
2023-05-17T13:26:21.546Z,14.86
2023-05-17T13:27:24.541Z,14.89
2023-05-17T13:28:26.790Z,14.90
2023-05-17T13:29:39.719Z,14.90
2023-05-17T13:30:49.836Z,14.90
2023-05-17T13:31:53.106Z,14.90
2023-05-17T13:32:56.053Z,14.89
2023-05-17T13:33:59.184Z,14.91
2023-05-17T13:35:02.110Z,14.92
2023-05-17T13:36:05.690Z,14.92
2023-05-17T13:37:12.078Z,14.93
2023-05-17T13:38:15.762Z,14.95
2023-05-17T13:39:19.650Z,14.97
2023-05-17T13:40:22.664Z,14.97
2023-05-17T13:41:25.662Z,14.98
2023-05-17T13:42:27.786Z,14.95
2023-05-17T13:43:30.776Z,14.96
2023-05-17T13:44:33.019Z,14.97
2023-05-17T13:45:36.368Z,14.99
2023-05-17T13:46:39.351Z,15.00
2023-05-17T13:47:42.445Z,15.03
2023-05-17T13:48:45.584Z,15.02